Time;durP1;ratioP1;P1;durP2;ratioP2;P2;SDS_P1;SDS_P2;PMS_P1;PMS_P2;Temp;Humidity;BMP_temperature;BMP_pressure;BME280_temperature;BME280_humidity;BME280_pressure;Samples;Min_cycle;Max_cycle;Signal;HPM_P1;HPM_P2
2023/08/26 00:01:33;;;;;;;6.60;2.88;;;16.10;99.90;;;;;;5045092;28;20047;-63
2023/08/26 00:03:58;;;;;;;7.75;2.70;;;16.10;99.90;;;;;;5040097;28;20064;-64
2023/08/26 00:06:24;;;;;;;6.32;2.33;;;16.10;99.90;;;;;;5044102;28;20041;-63
2023/08/26 00:08:53;;;;;;;9.57;2.50;;;16.00;99.90;;;;;;5040139;28;20045;-63
2023/08/26 00:11:18;;;;;;;6.85;2.70;;;16.00;99.90;;;;;;5044553;28;20520;-63
2023/08/26 00:13:44;;;;;;;5.93;3.00;;;16.00;99.90;;;;;;5048369;28;20178;-63
2023/08/26 00:16:11;;;;;;;6.95;2.63;;;16.00;99.90;;;;;;5035146;28;20068;-64
2023/08/26 00:18:37;;;;;;;7.80;3.25;;;15.90;99.90;;;;;;5032795;28;20037;-64
2023/08/26 00:21:03;;;;;;;5.85;2.88;;;15.90;99.90;;;;;;5046412;28;20037;-63
2023/08/26 00:23:31;;;;;;;7.47;3.20;;;15.90;99.90;;;;;;5045241;28;20625;-63
2023/08/26 00:25:57;;;;;;;9.27;2.95;;;15.80;99.90;;;;;;5047693;28;20051;-63
2023/08/26 00:28:23;;;;;;;5.30;2.20;;;15.80;99.90;;;;;;5044298;28;20045;-64
2023/08/26 00:30:59;;;;;;;6.07;2.35;;;15.70;99.90;;;;;;5045830;28;20048;-63
2023/08/26 00:33:28;;;;;;;4.82;2.47;;;15.70;99.90;;;;;;5037607;28;20045;-63
2023/08/26 00:35:54;;;;;;;6.68;2.30;;;15.70;99.90;;;;;;5047546;28;20531;-64
2023/08/26 00:38:20;;;;;;;8.18;2.72;;;15.70;99.90;;;;;;5033672;28;20045;-63
2023/08/26 00:40:45;;;;;;;8.05;2.47;;;15.60;99.90;;;;;;5039558;28;20523;-63
2023/08/26 00:43:11;;;;;;;4.22;2.60;;;15.60;99.90;;;;;;5045768;28;20051;-63
2023/08/26 00:45:42;;;;;;;5.53;2.75;;;15.50;99.90;;;;;;5038992;28;20045;-64
2023/08/26 00:48:11;;;;;;;6.80;2.58;;;15.50;99.90;;;;;;5045881;28;20045;-63
2023/08/26 00:50:38;;;;;;;5.28;3.08;;;15.50;99.90;;;;;;5041844;28;20049;-63
2023/08/26 00:53:05;;;;;;;6.93;3.10;;;15.40;99.90;;;;;;5033723;28;20100;-65
2023/08/26 00:55:31;;;;;;;5.60;2.78;;;15.40;99.90;;;;;;5027580;28;20067;-63
2023/08/26 00:57:58;;;;;;;9.18;3.20;;;15.40;99.90;;;;;;5042450;28;20500;-63
2023/08/26 01:00:25;;;;;;;8.63;3.05;;;15.30;99.90;;;;;;5034038;28;20048;-63
2023/08/26 01:02:51;;;;;;;4.78;2.75;;;15.20;99.90;;;;;;5041054;28;20354;-63
2023/08/26 01:05:17;;;;;;;10.98;3.13;;;15.20;99.90;;;;;;5044557;28;20051;-63
2023/08/26 01:07:44;;;;;;;8.35;3.10;;;15.20;99.90;;;;;;5039765;28;20049;-64
2023/08/26 01:10:11;;;;;;;4.53;2.90;;;15.10;99.90;;;;;;5042008;28;20400;-63
2023/08/26 01:12:40;;;;;;;6.78;3.00;;;15.10;99.90;;;;;;5043731;28;20495;-63
2023/08/26 01:15:09;;;;;;;5.35;2.85;;;15.00;99.90;;;;;;5043857;28;20076;-64
2023/08/26 01:17:36;;;;;;;5.22;2.80;;;15.00;99.90;;;;;;5041448;28;20033;-63
2023/08/26 01:20:03;;;;;;;6.80;2.97;;;15.00;99.90;;;;;;5039516;28;20520;-63
2023/08/26 01:22:33;;;;;;;5.10;2.75;;;15.00;99.90;;;;;;5031420;28;20038;-64
2023/08/26 01:24:59;;;;;;;8.32;3.08;;;14.90;99.90;;;;;;5024987;28;20121;-63
2023/08/26 01:27:25;;;;;;;7.70;2.80;;;14.90;99.90;;;;;;5023358;28;20122;-63
2023/08/26 01:29:50;;;;;;;8.95;2.80;;;14.80;99.90;;;;;;5026587;28;20115;-64
2023/08/26 01:33:09;;;;;;;9.13;3.30;;;14.80;99.90;;;;;;5018404;28;20705;-63
2023/08/26 01:35:41;;;;;;;4.35;3.08;;;14.80;99.90;;;;;;4986830;28;20045;-63
2023/08/26 01:38:08;;;;;;;5.63;2.90;;;14.70;99.90;;;;;;5043059;28;20408;-63
2023/08/26 01:40:34;;;;;;;5.20;2.80;;;14.70;99.90;;;;;;5046480;28;20095;-63
2023/08/26 01:43:03;;;;;;;5.93;3.13;;;14.70;99.90;;;;;;5047571;28;20041;-63
2023/08/26 01:45:28;;;;;;;7.10;2.92;;;14.70;99.90;;;;;;5048689;28;20045;-63
2023/08/26 01:47:54;;;;;;;11.13;3.17;;;14.60;99.90;;;;;;5046461;28;20049;-63
2023/08/26 01:50:20;;;;;;;8.90;3.17;;;14.60;99.90;;;;;;5040043;28;20048;-63
2023/08/26 01:52:46;;;;;;;5.28;2.40;;;14.60;99.90;;;;;;5048027;28;20041;-63
2023/08/26 01:55:11;;;;;;;6.15;2.67;;;14.60;99.90;;;;;;5038981;28;20045;-63
2023/08/26 01:57:37;;;;;;;5.05;2.72;;;14.50;99.90;;;;;;5045106;28;20171;-63
2023/08/26 02:00:05;;;;;;;7.43;2.60;;;14.50;99.90;;;;;;5036256;28;20515;-63
2023/08/26 02:02:30;;;;;;;5.30;2.65;;;14.60;99.90;;;;;;5046901;28;20124;-63
2023/08/26 02:04:56;;;;;;;4.57;2.67;;;14.60;99.90;;;;;;5048647;28;20492;-63
2023/08/26 02:07:22;;;;;;;6.18;2.88;;;14.60;99.90;;;;;;5035641;28;20033;-63
2023/08/26 02:09:47;;;;;;;4.15;2.30;;;14.50;99.90;;;;;;5044542;28;20041;-63
2023/08/26 02:12:13;;;;;;;9.52;2.58;;;14.50;99.90;;;;;;5045472;28;20463;-63
2023/08/26 02:14:39;;;;;;;7.85;3.00;;;14.50;99.90;;;;;;5047590;28;20129;-63
2023/08/26 02:17:04;;;;;;;7.03;2.80;;;14.50;99.90;;;;;;5044745;28;20056;-63
2023/08/26 02:19:30;;;;;;;4.60;2.67;;;14.50;99.90;;;;;;5048577;28;20044;-63
2023/08/26 02:21:56;;;;;;;6.47;3.00;;;14.50;99.90;;;;;;5047124;28;20447;-64
2023/08/26 02:24:21;;;;;;;8.43;2.60;;;14.40;99.90;;;;;;5048750;28;20052;-63
2023/08/26 02:26:47;;;;;;;5.65;2.60;;;14.40;99.90;;;;;;5040070;28;20052;-63
2023/08/26 02:29:13;;;;;;;4.97;2.50;;;14.40;99.90;;;;;;5035418;28;20146;-63
2023/08/26 02:31:38;;;;;;;5.13;2.38;;;14.30;99.90;;;;;;5044178;28;20064;-64
2023/08/26 02:34:04;;;;;;;6.50;2.70;;;14.30;99.90;;;;;;5042587;28;20043;-64
2023/08/26 02:36:30;;;;;;;5.28;3.13;;;14.30;99.90;;;;;;5048396;28;20041;-63
2023/08/26 02:38:55;;;;;;;5.40;2.85;;;14.20;99.90;;;;;;5042468;28;20059;-63
2023/08/26 02:41:21;;;;;;;4.13;2.72;;;14.20;99.90;;;;;;5044867;28;20052;-63
2023/08/26 02:43:46;;;;;;;5.28;3.17;;;14.20;99.90;;;;;;5046909;28;20044;-63
2023/08/26 02:46:12;;;;;;;7.82;2.80;;;14.20;99.90;;;;;;5039356;28;20125;-63
2023/08/26 02:48:38;;;;;;;5.70;3.00;;;14.20;99.90;;;;;;5048936;28;20456;-63
2023/08/26 02:51:04;;;;;;;5.45;2.70;;;14.10;99.90;;;;;;5045586;28;20041;-63
2023/08/26 02:53:30;;;;;;;5.38;2.80;;;14.20;99.90;;;;;;5033733;28;20056;-63
2023/08/26 02:55:56;;;;;;;12.45;3.50;;;14.20;99.90;;;;;;5045611;28;20041;-63
2023/08/26 02:58:23;;;;;;;4.32;2.65;;;14.10;99.90;;;;;;5047344;28;20510;-63
2023/08/26 03:00:48;;;;;;;4.22;2.72;;;14.20;99.90;;;;;;5047313;28;20056;-63
2023/08/26 03:03:15;;;;;;;4.85;2.67;;;14.10;99.90;;;;;;5046184;28;20049;-63
2023/08/26 03:05:41;;;;;;;4.68;2.80;;;14.10;99.90;;;;;;5046546;28;20037;-63
2023/08/26 03:08:07;;;;;;;5.78;3.05;;;14.10;99.90;;;;;;5049439;28;20037;-63
2023/08/26 03:10:33;;;;;;;4.43;2.90;;;14.10;99.90;;;;;;5044739;28;20539;-63
2023/08/26 03:12:59;;;;;;;5.78;2.97;;;14.10;99.90;;;;;;5047265;28;20128;-63
2023/08/26 03:15:29;;;;;;;7.15;3.67;;;14.10;99.90;;;;;;5046227;28;20049;-63
2023/08/26 03:17:55;;;;;;;7.25;3.20;;;14.10;99.90;;;;;;5031432;28;20052;-63
2023/08/26 03:20:21;;;;;;;4.80;3.17;;;14.20;99.90;;;;;;5043436;28;20669;-63
2023/08/26 03:22:47;;;;;;;4.05;3.03;;;14.10;99.90;;;;;;5051846;28;20128;-63
2023/08/26 03:25:12;;;;;;;6.25;3.20;;;14.10;99.90;;;;;;5042983;28;20106;-63
2023/08/26 03:27:38;;;;;;;7.43;2.92;;;14.10;99.90;;;;;;5044670;28;20044;-63
2023/08/26 03:30:06;;;;;;;3.75;2.55;;;14.10;99.90;;;;;;5022080;28;20128;-63
2023/08/26 03:32:31;;;;;;;4.03;2.90;;;14.10;99.90;;;;;;5024905;28;20046;-63
2023/08/26 03:34:57;;;;;;;3.90;2.90;;;14.10;99.90;;;;;;5023097;28;20049;-62
2023/08/26 03:37:24;;;;;;;5.15;2.97;;;14.10;99.90;;;;;;5031107;28;20485;-63
2023/08/26 03:39:50;;;;;;;5.47;2.85;;;14.10;99.90;;;;;;5039457;28;20444;-63
2023/08/26 03:42:15;;;;;;;5.85;3.10;;;14.10;99.90;;;;;;5045852;28;20049;-63
2023/08/26 03:44:41;;;;;;;4.28;2.92;;;14.10;99.90;;;;;;5044909;28;20041;-63
2023/08/26 03:47:06;;;;;;;8.57;3.15;;;14.10;99.90;;;;;;5039637;28;20043;-63
2023/08/26 03:49:32;;;;;;;5.25;3.33;;;14.10;99.90;;;;;;5045218;28;20095;-64
2023/08/26 03:51:58;;;;;;;5.10;3.45;;;14.10;99.90;;;;;;5046448;28;20404;-63
2023/08/26 03:54:24;;;;;;;5.30;3.17;;;14.00;99.90;;;;;;5039097;28;20044;-63
2023/08/26 03:56:49;;;;;;;7.47;3.65;;;14.00;99.90;;;;;;5047345;28;20041;-63
2023/08/26 03:59:15;;;;;;;5.30;3.40;;;13.90;99.90;;;;;;5033670;28;20041;-63
2023/08/26 04:01:41;;;;;;;5.03;3.10;;;14.00;99.90;;;;;;5046585;28;20492;-63
2023/08/26 04:04:06;;;;;;;5.90;3.28;;;13.90;99.90;;;;;;5040425;28;20044;-63
2023/08/26 04:06:33;;;;;;;6.88;3.80;;;13.90;99.90;;;;;;5047187;28;20045;-63
2023/08/26 04:09:02;;;;;;;7.80;3.75;;;13.90;99.90;;;;;;5043018;28;20125;-63
2023/08/26 04:11:28;;;;;;;6.22;3.38;;;13.90;99.90;;;;;;5048948;28;20150;-63
2023/08/26 04:13:53;;;;;;;5.22;3.72;;;13.80;99.90;;;;;;5041192;28;20084;-64
2023/08/26 04:16:21;;;;;;;7.80;3.45;;;13.90;99.90;;;;;;5038153;28;20591;-63
2023/08/26 04:18:47;;;;;;;4.68;3.10;;;13.80;99.90;;;;;;5039769;28;20044;-64
2023/08/26 04:21:13;;;;;;;6.90;3.65;;;13.90;99.90;;;;;;5034542;28;20136;-63
2023/08/26 04:23:39;;;;;;;6.55;3.08;;;13.90;99.90;;;;;;5038355;28;20117;-64
2023/08/26 04:26:05;;;;;;;6.18;3.33;;;13.80;99.90;;;;;;5043898;28;20045;-63
2023/08/26 04:28:31;;;;;;;5.35;3.22;;;13.80;99.90;;;;;;5060894;28;20037;-63
2023/08/26 04:31:01;;;;;;;8.07;3.88;;;13.70;99.90;;;;;;5044427;28;20604;-62
2023/08/26 04:33:26;;;;;;;6.10;3.97;;;13.70;99.90;;;;;;5043973;28;20151;-64
2023/08/26 04:35:52;;;;;;;5.40;3.53;;;13.70;99.90;;;;;;5035492;28;20045;-63
2023/08/26 04:38:18;;;;;;;7.00;3.60;;;13.70;99.90;;;;;;5047177;28;20048;-64
2023/08/26 04:40:44;;;;;;;7.30;3.30;;;13.80;99.90;;;;;;5034943;28;20041;-65
2023/08/26 04:43:10;;;;;;;6.70;3.20;;;13.70;99.90;;;;;;5041091;28;20094;-64
2023/08/26 04:45:37;;;;;;;5.32;3.55;;;13.70;99.90;;;;;;5029806;28;20037;-63
2023/08/26 04:48:05;;;;;;;6.07;3.13;;;13.80;99.90;;;;;;5037854;28;20047;-64
2023/08/26 04:50:30;;;;;;;7.60;3.28;;;13.80;99.90;;;;;;5034704;28;20060;-64
2023/08/26 04:52:56;;;;;;;6.00;3.60;;;13.80;99.90;;;;;;5042518;28;20037;-64
2023/08/26 04:55:22;;;;;;;6.93;3.45;;;13.90;99.90;;;;;;5041070;28;20555;-64
2023/08/26 04:57:47;;;;;;;6.57;3.38;;;13.90;99.90;;;;;;5042793;28;20033;-64
2023/08/26 05:00:16;;;;;;;6.60;3.42;;;13.80;99.90;;;;;;5043531;28;20127;-64
2023/08/26 05:02:42;;;;;;;4.95;2.95;;;14.00;99.90;;;;;;5046911;28;20041;-64
2023/08/26 05:05:08;;;;;;;7.03;3.60;;;14.00;99.90;;;;;;5040585;28;20038;-64
2023/08/26 05:07:34;;;;;;;8.40;3.65;;;13.90;99.90;;;;;;5032846;28;20041;-64
2023/08/26 05:10:00;;;;;;;6.20;3.40;;;14.00;99.90;;;;;;5052576;28;20036;-64
2023/08/26 05:12:26;;;;;;;7.85;3.35;;;14.00;99.90;;;;;;5039470;28;20041;-64
2023/08/26 05:14:51;;;;;;;6.22;3.40;;;14.00;99.90;;;;;;5045786;28;20130;-64
2023/08/26 05:17:17;;;;;;;6.95;3.38;;;14.10;99.90;;;;;;5046534;28;20071;-64
2023/08/26 05:19:43;;;;;;;6.68;3.30;;;14.20;99.90;;;;;;5051199;28;20087;-65
2023/08/26 05:22:08;;;;;;;8.25;3.60;;;14.20;99.90;;;;;;5044753;28;20234;-64
2023/08/26 05:24:34;;;;;;;7.38;3.67;;;14.30;99.90;;;;;;5046855;28;20043;-64
2023/08/26 05:27:00;;;;;;;4.90;3.63;;;14.40;99.90;;;;;;5045934;28;20120;-64
2023/08/26 05:29:25;;;;;;;8.20;4.43;;;14.60;99.90;;;;;;5048369;28;20128;-64
2023/08/26 05:31:51;;;;;;;11.50;5.00;;;14.60;99.90;;;;;;5049281;28;22017;-63
2023/08/26 05:34:17;;;;;;;7.97;5.10;;;14.80;99.90;;;;;;5047388;28;20496;-63
2023/08/26 05:36:42;;;;;;;7.70;5.47;;;14.80;99.90;;;;;;5049336;28;20190;-64
2023/08/26 05:39:08;;;;;;;8.60;6.18;;;14.90;99.90;;;;;;5046442;28;20128;-64
2023/08/26 05:41:34;;;;;;;7.63;5.57;;;15.00;99.90;;;;;;5052381;28;20045;-64
2023/08/26 05:43:59;;;;;;;10.80;5.55;;;15.00;99.90;;;;;;5047976;28;20040;-64
2023/08/26 05:46:25;;;;;;;9.57;5.63;;;15.10;99.90;;;;;;5052275;28;20121;-64
2023/08/26 05:48:51;;;;;;;8.50;5.95;;;15.10;99.90;;;;;;5043540;28;20148;-64
2023/08/26 05:51:16;;;;;;;8.43;5.65;;;15.10;99.90;;;;;;5046602;28;20043;-64
2023/08/26 05:53:42;;;;;;;9.63;5.88;;;15.10;99.90;;;;;;5047243;28;20037;-64
2023/08/26 05:56:07;;;;;;;7.82;5.25;;;15.10;99.90;;;;;;5042703;28;20068;-64
2023/08/26 05:58:33;;;;;;;10.25;5.78;;;15.10;99.90;;;;;;5040134;28;20041;-64
2023/08/26 06:00:59;;;;;;;10.70;4.78;;;15.20;99.90;;;;;;5043304;28;20045;-64
2023/08/26 06:03:24;;;;;;;9.30;5.43;;;15.20;99.90;;;;;;5046753;28;20041;-64
2023/08/26 06:05:50;;;;;;;8.05;4.88;;;15.30;99.90;;;;;;5048618;28;20051;-64
2023/08/26 06:08:16;;;;;;;8.05;5.05;;;15.30;99.90;;;;;;5046036;28;20090;-64
2023/08/26 06:10:41;;;;;;;10.35;5.45;;;15.30;99.90;;;;;;5036859;28;21041;-64
2023/08/26 06:13:07;;;;;;;7.25;4.80;;;15.40;99.90;;;;;;5040487;28;20098;-64
2023/08/26 06:15:33;;;;;;;8.40;5.00;;;15.40;99.90;;;;;;5040986;28;20364;-63
2023/08/26 06:17:59;;;;;;;8.68;5.55;;;15.50;99.90;;;;;;5049169;28;20045;-63
2023/08/26 06:20:26;;;;;;;7.40;4.93;;;15.50;99.90;;;;;;5049793;28;20044;-63
2023/08/26 06:22:52;;;;;;;7.45;5.82;;;15.50;99.90;;;;;;5045705;28;20409;-63
2023/08/26 06:25:18;;;;;;;9.27;5.57;;;15.50;99.90;;;;;;5041190;28;20044;-63
2023/08/26 06:27:43;;;;;;;8.48;5.30;;;15.50;99.90;;;;;;5027155;28;20053;-63
2023/08/26 06:30:09;;;;;;;10.57;6.55;;;15.50;99.90;;;;;;5041585;28;20167;-63
2023/08/26 06:32:35;;;;;;;9.07;6.03;;;15.60;99.90;;;;;;5048635;28;20078;-63
2023/08/26 06:35:01;;;;;;;10.65;6.70;;;15.60;99.90;;;;;;5038756;28;20045;-64
2023/08/26 06:37:27;;;;;;;12.23;6.93;;;15.60;99.90;;;;;;5042716;28;20032;-64
2023/08/26 06:39:52;;;;;;;11.73;7.65;;;15.60;99.90;;;;;;5046694;28;20106;-64
2023/08/26 06:42:18;;;;;;;12.30;7.70;;;15.60;99.90;;;;;;5039657;28;20045;-63
2023/08/26 06:44:44;;;;;;;13.35;7.47;;;15.70;99.90;;;;;;5044879;28;20033;-64
2023/08/26 06:47:10;;;;;;;11.10;7.88;;;15.90;99.90;;;;;;5041249;28;20063;-64
2023/08/26 06:49:35;;;;;;;10.43;7.45;;;16.10;99.90;;;;;;5043868;28;20075;-65
2023/08/26 06:52:02;;;;;;;11.32;8.35;;;16.40;99.90;;;;;;5045157;28;20106;-63
2023/08/26 06:54:27;;;;;;;10.32;9.00;;;16.40;99.90;;;;;;5046049;28;20043;-64
2023/08/26 06:56:53;;;;;;;11.07;8.18;;;16.60;99.90;;;;;;5042386;28;20045;-64
2023/08/26 06:59:19;;;;;;;13.07;8.77;;;16.80;99.90;;;;;;5038758;28;20412;-64
2023/08/26 07:01:45;;;;;;;12.25;9.38;;;17.10;99.90;;;;;;5048974;28;20516;-63
2023/08/26 07:04:11;;;;;;;14.80;9.45;;;17.40;99.90;;;;;;5041134;28;20037;-63
2023/08/26 07:06:37;;;;;;;12.70;9.57;;;17.60;99.90;;;;;;5048325;28;20037;-65
2023/08/26 07:09:04;;;;;;;15.27;9.27;;;17.90;99.90;;;;;;5044745;28;20037;-64
2023/08/26 07:11:30;;;;;;;12.57;9.02;;;18.10;99.90;;;;;;5047464;28;20044;-64
2023/08/26 07:13:56;;;;;;;15.93;9.77;;;18.30;99.90;;;;;;5035848;28;20052;-64
2023/08/26 07:16:22;;;;;;;14.00;9.70;;;18.40;99.90;;;;;;5046492;28;20051;-64
2023/08/26 07:18:47;;;;;;;15.05;10.13;;;18.70;99.90;;;;;;5047060;28;20114;-64
2023/08/26 07:21:15;;;;;;;15.13;10.27;;;18.70;99.90;;;;;;5049697;28;20167;-64
2023/08/26 07:23:41;;;;;;;15.10;9.82;;;18.80;99.90;;;;;;5041280;28;20507;-63
2023/08/26 07:26:06;;;;;;;13.48;9.88;;;18.90;99.90;;;;;;5036609;28;20079;-64
2023/08/26 07:28:32;;;;;;;16.92;9.63;;;19.10;99.90;;;;;;5033400;28;20044;-65
2023/08/26 07:31:05;;;;;;;14.23;8.82;;;19.50;99.90;;;;;;5045239;28;20496;-65
2023/08/26 07:33:31;;;;;;;12.93;8.93;;;19.80;99.90;;;;;;5043287;28;20044;-64
2023/08/26 07:36:02;;;;;;;12.93;7.80;;;20.10;99.90;;;;;;5046678;28;20466;-64
2023/08/26 07:38:28;;;;;;;9.75;7.03;;;20.20;99.90;;;;;;5047334;28;20036;-64
2023/08/26 07:40:54;;;;;;;8.55;6.40;;;20.00;99.90;;;;;;5044107;28;20048;-64
2023/08/26 07:43:19;;;;;;;8.80;6.90;;;19.70;99.90;;;;;;5045024;28;20464;-64
2023/08/26 07:45:45;;;;;;;15.27;7.28;;;19.50;99.90;;;;;;5047138;28;20061;-64
2023/08/26 07:48:10;;;;;;;10.65;6.38;;;19.40;99.90;;;;;;5044223;28;20597;-65
2023/08/26 07:50:38;;;;;;;9.60;5.55;;;19.20;99.90;;;;;;5046555;28;20063;-64
2023/08/26 07:53:05;;;;;;;6.88;5.03;;;19.00;99.90;;;;;;5046188;28;20507;-64
2023/08/26 07:55:32;;;;;;;7.60;5.10;;;19.00;99.90;;;;;;5035545;28;20034;-65
2023/08/26 07:57:58;;;;;;;8.65;5.10;;;19.20;99.90;;;;;;5040516;28;20049;-64
2023/08/26 08:00:23;;;;;;;7.90;4.13;;;19.40;99.90;;;;;;5043393;28;20045;-64
2023/08/26 08:02:49;;;;;;;8.50;3.72;;;19.50;99.90;;;;;;5043212;28;20045;-64
2023/08/26 08:05:15;;;;;;;8.23;3.63;;;19.50;99.90;;;;;;5046606;28;20064;-65
2023/08/26 08:07:41;;;;;;;8.40;4.20;;;19.30;99.90;;;;;;5042865;28;20056;-64
2023/08/26 08:10:08;;;;;;;7.40;3.10;;;19.30;99.90;;;;;;5033457;28;20029;-64
2023/08/26 08:12:35;;;;;;;6.35;3.10;;;19.40;99.90;;;;;;5044506;28;20033;-64
2023/08/26 08:15:00;;;;;;;9.85;2.63;;;19.40;99.90;;;;;;5045326;28;20099;-63
2023/08/26 08:17:26;;;;;;;4.10;2.15;;;19.50;99.90;;;;;;5036578;28;20045;-63
2023/08/26 08:19:52;;;;;;;3.72;2.08;;;19.30;99.90;;;;;;5044989;28;20072;-63
2023/08/26 08:22:17;;;;;;;5.22;1.60;;;19.20;99.90;;;;;;5038012;28;20061;-63
2023/08/26 08:24:43;;;;;;;2.83;1.38;;;19.00;99.90;;;;;;5040927;28;20571;-63
2023/08/26 08:27:09;;;;;;;2.78;1.42;;;18.80;99.90;;;;;;5043948;28;20041;-63
2023/08/26 08:29:35;;;;;;;4.20;1.52;;;18.80;99.90;;;;;;5035646;28;20056;-63
2023/08/26 08:32:02;;;;;;;3.97;1.60;;;19.00;99.90;;;;;;5036826;28;20334;-63
2023/08/26 08:34:27;;;;;;;4.75;1.80;;;19.10;99.90;;;;;;5037980;28;20114;-63
2023/08/26 08:36:53;;;;;;;2.50;1.30;;;19.30;99.90;;;;;;5044512;28;20124;-64
2023/08/26 08:39:19;;;;;;;4.80;1.20;;;19.50;99.90;;;;;;5040146;28;20183;-63
2023/08/26 08:41:49;;;;;;;2.97;1.40;;;19.40;99.90;;;;;;5045122;28;20073;-64
2023/08/26 08:44:16;;;;;;;2.67;1.20;;;19.50;99.90;;;;;;5035536;28;20083;-63
2023/08/26 08:46:44;;;;;;;5.65;1.48;;;19.60;99.90;;;;;;5040374;28;20413;-63
2023/08/26 08:49:12;;;;;;;3.40;1.10;;;19.80;99.90;;;;;;5045262;28;20056;-63
2023/08/26 08:51:39;;;;;;;3.58;1.40;;;19.90;99.90;;;;;;5038192;28;20037;-64
2023/08/26 08:54:06;;;;;;;3.13;1.30;;;19.90;99.90;;;;;;5039744;28;20045;-63
2023/08/26 08:56:32;;;;;;;2.60;1.20;;;19.80;99.90;;;;;;5041008;28;20037;-63
2023/08/26 08:59:00;;;;;;;3.35;1.40;;;19.80;99.90;;;;;;5039633;28;20481;-63
2023/08/26 09:01:28;;;;;;;3.53;1.58;;;19.70;99.90;;;;;;5038359;28;20047;-63
2023/08/26 09:03:53;;;;;;;5.10;1.50;;;19.70;99.90;;;;;;5034224;28;20045;-63
2023/08/26 09:06:19;;;;;;;4.25;1.70;;;19.70;99.90;;;;;;5034759;28;20056;-63
2023/08/26 09:08:45;;;;;;;7.90;1.75;;;19.70;99.90;;;;;;5036809;28;20116;-64
2023/08/26 09:11:14;;;;;;;4.05;2.00;;;19.60;99.90;;;;;;5033473;28;20049;-63
2023/08/26 09:13:40;;;;;;;5.32;1.75;;;19.60;99.90;;;;;;5033030;28;20045;-63
2023/08/26 09:16:06;;;;;;;3.33;1.80;;;19.50;99.90;;;;;;5033404;28;20133;-64
2023/08/26 09:18:39;;;;;;;4.00;1.83;;;19.40;99.90;;;;;;5036796;28;20053;-63
2023/08/26 09:21:11;;;;;;;3.65;1.75;;;19.40;99.90;;;;;;5040647;28;20050;-64
2023/08/26 09:23:41;;;;;;;5.90;1.90;;;19.50;99.90;;;;;;5037897;28;20045;-64
2023/08/26 09:26:07;;;;;;;4.72;1.95;;;19.50;99.90;;;;;;5040041;28;20064;-71
2023/08/26 09:28:38;;;;;;;4.88;1.98;;;19.70;99.90;;;;;;5042949;28;20056;-72
2023/08/26 09:31:06;;;;;;;5.80;2.03;;;19.80;99.90;;;;;;5038044;28;20562;-70
2023/08/26 09:33:32;;;;;;;6.18;2.55;;;19.70;99.90;;;;;;5035964;28;20128;-72
2023/08/26 09:35:58;;;;;;;8.35;3.17;;;19.60;99.90;;;;;;5019559;28;20045;-69
2023/08/26 09:38:24;;;;;;;5.03;2.42;;;19.40;99.90;;;;;;5037793;28;20611;-70
2023/08/26 09:40:56;;;;;;;8.65;3.03;;;19.30;99.90;;;;;;5035751;28;20124;-72
2023/08/26 09:43:22;;;;;;;7.18;3.10;;;19.10;99.90;;;;;;5038187;28;20288;-70
2023/08/26 09:45:48;;;;;;;7.45;4.13;;;19.10;99.90;;;;;;5036573;28;20190;-71
2023/08/26 09:48:24;;;;;;;6.53;3.72;;;18.90;99.90;;;;;;5040454;28;20037;-72
2023/08/26 09:50:50;;;;;;;7.05;4.13;;;18.90;99.90;;;;;;5039001;28;20052;-73
2023/08/26 09:53:30;;;;;;;7.63;4.93;;;18.80;99.90;;;;;;5039489;28;20073;-73
2023/08/26 09:55:57;;;;;;;10.70;5.60;;;18.80;99.90;;;;;;5037251;28;20056;-73
2023/08/26 09:58:23;;;;;;;11.70;6.00;;;18.70;99.90;;;;;;5038955;28;20048;-72
2023/08/26 10:00:50;;;;;;;9.35;3.35;;;18.60;99.90;;;;;;5042476;28;20045;-72
2023/08/26 10:03:21;;;;;;;8.10;3.22;;;18.50;99.90;;;;;;5040047;28;20088;-72
2023/08/26 10:05:50;;;;;;;9.32;2.92;;;18.50;99.90;;;;;;5038796;28;20063;-71
2023/08/26 10:08:17;;;;;;;9.07;2.92;;;18.50;99.90;;;;;;5036749;28;20038;-72
2023/08/26 10:10:52;;;;;;;7.68;2.92;;;18.50;99.90;;;;;;5038860;28;20041;-72
2023/08/26 10:13:23;;;;;;;4.97;2.63;;;18.60;99.90;;;;;;5036081;28;20030;-72
2023/08/26 10:15:51;;;;;;;5.63;2.33;;;18.70;99.90;;;;;;5036821;28;20055;-73
2023/08/26 10:18:38;;;;;;;6.00;2.17;;;18.80;99.90;;;;;;5039829;28;20052;-72
2023/08/26 10:21:05;;;;;;;4.45;1.60;;;18.90;99.90;;;;;;5028609;28;20179;-73
2023/08/26 10:23:32;;;;;;;4.07;1.73;;;19.00;99.90;;;;;;5039517;28;20072;-73
2023/08/26 10:25:58;;;;;;;3.03;1.48;;;19.00;99.90;;;;;;5040861;28;20045;-70
2023/08/26 10:28:25;;;;;;;2.10;1.20;;;19.10;99.90;;;;;;5057521;28;20053;-71
2023/08/26 10:30:53;;;;;;;3.35;1.00;;;19.40;99.90;;;;;;5046316;28;20340;-70
2023/08/26 10:33:19;;;;;;;3.30;1.02;;;19.70;99.90;;;;;;5028372;28;20357;-73
2023/08/26 10:36:14;;;;;;;1.85;0.85;;;19.90;99.90;;;;;;5031698;28;20041;-74
2023/08/26 10:38:53;;;;;;;3.78;1.15;;;20.20;99.90;;;;;;5017465;28;20041;-74
2023/08/26 10:41:19;;;;;;;2.65;1.13;;;20.40;99.90;;;;;;5046210;28;20408;-73
2023/08/26 10:43:55;;;;;;;3.83;1.30;;;20.30;99.90;;;;;;5031175;28;20041;-73
2023/08/26 10:46:56;;;;;;;11.57;4.50;;;20.40;99.90;;;;;;5041732;28;20593;-74
2023/08/26 10:49:30;;;;;;;3.40;1.80;;;20.70;99.90;;;;;;5047995;28;20060;-76
2023/08/26 10:52:29;;;;;;;3.17;1.63;;;21.00;99.90;;;;;;5041401;28;20495;-78
2023/08/26 10:54:55;;;;;;;4.40;1.90;;;21.00;99.90;;;;;;5044870;28;20121;-77
2023/08/26 10:57:20;;;;;;;4.88;2.00;;;20.90;99.90;;;;;;5048673;28;20570;-78
2023/08/26 10:59:47;;;;;;;3.72;1.73;;;20.80;99.90;;;;;;5042766;28;20140;-76
2023/08/26 11:02:13;;;;;;;3.08;1.75;;;20.70;99.90;;;;;;5054765;28;20075;-78
2023/08/26 11:04:43;;;;;;;4.10;1.70;;;20.60;99.90;;;;;;5059950;28;20045;-77
2023/08/26 11:07:19;;;;;;;4.00;1.83;;;20.50;99.90;;;;;;5056647;28;20076;-77
2023/08/26 11:09:45;;;;;;;5.63;1.95;;;20.40;99.90;;;;;;5061115;28;20037;-76
2023/08/26 11:12:28;;;;;;;3.83;2.15;;;20.40;99.90;;;;;;5046718;28;20056;-77
2023/08/26 11:15:05;;;;;;;4.70;1.65;;;20.50;99.90;;;;;;5032616;28;20064;-76
2023/08/26 11:17:31;;;;;;;5.88;1.70;;;20.70;99.90;;;;;;5063526;28;20043;-77
2023/08/26 11:19:57;;;;;;;6.70;1.77;;;21.00;99.90;;;;;;5052271;28;20049;-78
2023/08/26 11:22:26;;;;;;;4.25;1.60;;;21.10;99.90;;;;;;5047815;28;20465;-78
2023/08/26 11:24:52;;;;;;;6.35;2.03;;;20.90;99.90;;;;;;5036767;28;20053;-78
2023/08/26 11:27:18;;;;;;;5.45;1.85;;;20.90;99.90;;;;;;5029637;28;20037;-76
2023/08/26 11:29:44;;;;;;;4.40;1.60;;;20.80;99.90;;;;;;5024410;28;20524;-78
2023/08/26 11:32:10;;;;;;;5.25;1.60;;;20.60;99.90;;;;;;5041772;28;20155;-77
2023/08/26 11:34:36;;;;;;;5.93;1.75;;;20.50;99.90;;;;;;5047480;28;20496;-77
2023/08/26 11:37:02;;;;;;;4.07;1.65;;;20.40;99.90;;;;;;5044055;28;20053;-76
2023/08/26 11:39:34;;;;;;;5.03;1.80;;;20.30;99.90;;;;;;5041180;28;20084;-78
2023/08/26 11:42:13;;;;;;;4.40;1.10;;;20.10;99.90;;;;;;5030277;28;20033;-77
2023/08/26 11:44:39;;;;;;;4.65;1.20;;;20.00;99.90;;;;;;5031449;28;20037;-77
2023/08/26 11:47:07;;;;;;;2.92;1.13;;;20.00;99.90;;;;;;5047206;28;20466;-77
2023/08/26 11:49:33;;;;;;;2.58;1.20;;;19.90;99.90;;;;;;5040812;28;20045;-77
2023/08/26 11:52:02;;;;;;;4.20;1.35;;;19.90;99.90;;;;;;5042106;28;20045;-78
2023/08/26 11:54:28;;;;;;;4.03;1.58;;;20.00;99.90;;;;;;5045866;28;20068;-77
2023/08/26 11:56:53;;;;;;;2.95;1.58;;;20.10;99.90;;;;;;5041688;28;20543;-77
2023/08/26 11:59:20;;;;;;;6.03;1.60;;;20.00;99.90;;;;;;5045279;28;20083;-78
2023/08/26 12:01:46;;;;;;;3.20;1.80;;;19.90;99.90;;;;;;5044557;28;20110;-78
2023/08/26 12:04:15;;;;;;;3.95;1.65;;;19.80;99.90;;;;;;5041351;28;20160;-77
2023/08/26 12:06:42;;;;;;;4.60;1.95;;;19.70;99.90;;;;;;5035169;28;20509;-78
2023/08/26 12:09:07;;;;;;;5.90;2.13;;;19.60;99.90;;;;;;5043326;28;20040;-78
2023/08/26 12:11:37;;;;;;;4.13;1.50;;;19.60;99.90;;;;;;5041002;28;20382;-78
2023/08/26 12:14:17;;;;;;;6.68;2.50;;;19.40;99.90;;;;;;5036466;28;20041;-77
2023/08/26 12:16:43;;;;;;;3.70;1.73;;;19.40;99.90;;;;;;5027980;28;20113;-78
2023/08/26 12:19:18;;;;;;;4.75;1.73;;;19.70;99.90;;;;;;5042489;28;20137;-77
2023/08/26 12:21:50;;;;;;;3.45;1.52;;;20.00;99.90;;;;;;5046355;28;20040;-77
2023/08/26 12:24:23;;;;;;;4.28;1.35;;;20.20;99.90;;;;;;5045959;28;20045;-78
2023/08/26 12:26:49;;;;;;;6.57;2.00;;;20.30;99.90;;;;;;5044313;28;20114;-79
2023/08/26 12:29:15;;;;;;;3.22;1.20;;;20.30;99.90;;;;;;5047627;28;20053;-79
2023/08/26 12:31:43;;;;;;;4.78;1.63;;;20.50;99.90;;;;;;5044044;28;20493;-78
2023/08/26 12:34:09;;;;;;;4.32;1.60;;;20.50;99.90;;;;;;5032491;28;20505;-78
2023/08/26 12:36:35;;;;;;;5.00;1.63;;;20.40;99.90;;;;;;5041963;28;20041;-79
2023/08/26 12:39:00;;;;;;;7.78;1.95;;;20.20;99.90;;;;;;5038843;28;20052;-80
2023/08/26 12:41:26;;;;;;;3.40;1.40;;;20.10;99.90;;;;;;5035450;28;20094;-79
2023/08/26 12:43:55;;;;;;;4.72;1.45;;;20.00;99.90;;;;;;5046371;28;20052;-78
2023/08/26 12:46:21;;;;;;;4.10;1.50;;;20.10;99.90;;;;;;5036252;28;20501;-75